X  Zamknij Lotniskowe dane METAR     EHKD De Kooy Airport
Temperatura
17°C Temperatura
12°C Punkt rosy
73% Wilgotność



Wiatr
22 MPH
35 KM/H
10 M/S
19 KTS



230°
SW
Warunki bieżące

Lekkie zachmurzenie Lekkie zachmurzenie
Ciśnienie 1009.82 (hPa) - 29.82 (inHg)
Widoczność 6 (mil) - 9.7 (km)
Lotnisko
Kod lotniska EHKD

Położenie: De Kooy Airport
Odległość: 34 (mi)

Metar:
EHKD 141125Z AUTO 23019G30KT 200V270 9999 SCT020 SCT025 BKN087 17/12 Q1010 BLU

Czas: 14-07-2024 13:25 CEST